A- A+ FrançaisEnglishEspañol中国

最近的 LEGA Armilla (Granada) EGGW London LutonBGBW NarsarsuaqLFNA Gap-Tallard LFPP Le-Plessis-Belleville LFPH Chelles-Le-Pin

飞行员的航空天气,使用METAR(气象机场报告)进行的飞行准备和TAF(终端机场预报:针对以下情况的短期天气预报)航空)。 以及其他资源,例如VAC(目视进近图)和NOTAM(通知飞行员)以进行预试飞行.

METAR, TAF, VAC, NOTAM Roscommon Co机场 (美国) / OACI KHTL/ IATA HTL

它位于附近 Houghton Lake, North Shore Trailer Park 在 5.1 km, Prudenville 在 7 km, Houghton Lake 在 9 km, Roscommon 在 17 km, Saint Helen 在 21 km, Grayling 在 34 km, West Branch 在 36 km, Harrison 在 39 km, Lake City 在 43 km, Gladwin 在 45 km,

机场的高度为 Roscommon Co机场的

351 m = 1152 ft

跑道 Roscommon Co机场的

附近的机场Roscommon Co机场的

目前的天气 Roscommon Co机场的 - KHTL

nuages fragmentés
22°C

Vent 13 km/h
+ rafales à 35km/h

可提供5天天气预报 North Shore Trailer Park 在 5.1 km, Prudenville 在 7 km, Houghton Lake 在 9 km, Roscommon 在 17 km, Saint Helen 在 21 km, Grayling 在 34 km, West Branch 在 36 km, Harrison 在 39 km, Lake City 在 43 km, Gladwin 在 45 km,

METAR Roscommon Co机场的 - KHTL

KHTL 031453Z AUTO 22007G19KT 10SM CLR 22/12 A2966 RMK AO2 SLP039 T02220122 58026

Roscommon Co机场METAR解码 (美国)

KHTL机场发行的METAR日期2020年09月03日至14:53 GMT. 这是一个自动生成的METAR, 警告:此METAR已过期, 已于 20 天 7 小时 12 分钟.

可见度为16.1 km = 10 sm.

温度为22°C = 72 °F 露点为12°C = 54 °F 。 这相当于53%的相对湿度。.

QNH是1004 hPa = 29.65 inHg

的风7 kt = 13 km/h 阵风在19 kt = 35 km/h, 风向为220°.

天空晴朗

备注 AO2 SLP039 T02220122 58026

TAF Roscommon Co机场的 - KHTL

没有TAF

Roscommon Co机场的NOTAM

提供的NOTAM不能保证其时事性。 在将其用于飞行准备或在飞行期间使用之前,飞行员是唯一负责验证其有效性的人员。

没有通知

数据源